createdAt,value
2018-08-24T00:00:02.245Z,97638.56
2018-08-24T00:02:33.559Z,97638.25
2018-08-24T00:05:05.158Z,97634.62
2018-08-24T00:07:35.516Z,97626.06
2018-08-24T00:10:07.842Z,97618.59
2018-08-24T00:12:38.498Z,97617.02
2018-08-24T00:15:09.006Z,97619.12
2018-08-24T00:17:39.589Z,97600.06
2018-08-24T00:20:09.930Z,97599.02
2018-08-24T00:27:28.935Z,97592.76
2018-08-24T00:29:59.587Z,97598.31
2018-08-24T00:32:31.064Z,97582.23
2018-08-24T00:35:02.160Z,97585.02
2018-08-24T00:37:33.557Z,97580.84
2018-08-24T00:40:03.756Z,97576.30
2018-08-24T00:42:35.091Z,97571.66
2018-08-24T00:45:06.857Z,97571.87
2018-08-24T00:47:36.960Z,97568.73
2018-08-24T00:50:07.527Z,97567.93
2018-08-24T00:52:38.415Z,97560.18
2018-08-24T00:55:08.877Z,97554.00
2018-08-24T00:57:38.970Z,97543.92
2018-08-24T01:00:10.754Z,97541.63
2018-08-24T01:02:41.790Z,97536.84
2018-08-24T01:05:12.129Z,97532.03
2018-08-24T01:07:48.156Z,97527.56
2018-08-24T01:10:24.471Z,97528.02
2018-08-24T01:12:56.595Z,97528.92
2018-08-24T01:15:27.555Z,97538.20
2018-08-24T01:18:03.731Z,97552.73
2018-08-24T01:20:34.943Z,97549.25
2018-08-24T01:23:05.966Z,97545.05
2018-08-24T01:25:37.422Z,97540.23
2018-08-24T01:28:09.293Z,97542.70
2018-08-24T01:30:39.276Z,97541.50
2018-08-24T01:33:09.354Z,97549.09
2018-08-24T01:35:40.658Z,97545.59
2018-08-24T01:38:11.778Z,97547.67
2018-08-24T01:40:43.653Z,97547.07
2018-08-24T01:43:14.124Z,97547.94
2018-08-24T01:45:45.259Z,97543.78
2018-08-24T01:48:16.107Z,97548.52
2018-08-24T01:50:46.303Z,97537.00
2018-08-24T01:53:17.417Z,97539.33
2018-08-24T01:55:48.197Z,97549.23
2018-08-24T01:58:19.269Z,97555.09
2018-08-24T02:00:50.271Z,97544.38
2018-08-24T02:03:21.421Z,97547.50
2018-08-24T02:05:53.717Z,97542.56
2018-08-24T02:08:24.391Z,97548.21
2018-08-24T02:10:55.150Z,97544.50
2018-08-24T02:13:31.037Z,97551.27
2018-08-24T02:16:01.947Z,97558.72
2018-08-24T02:18:37.689Z,97559.64
2018-08-24T02:21:14.811Z,97559.06
2018-08-24T02:23:45.713Z,97570.57
2018-08-24T02:26:16.834Z,97566.95
2018-08-24T02:28:48.486Z,97564.84
2018-08-24T02:31:18.804Z,97563.39
2018-08-24T02:33:49.161Z,97561.50
2018-08-24T02:36:20.235Z,97560.39
2018-08-24T02:38:50.367Z,97556.55
2018-08-24T02:41:20.407Z,97559.47
2018-08-24T02:43:50.482Z,97555.80
2018-08-24T02:46:21.895Z,97557.48
2018-08-24T02:48:52.107Z,97553.07
2018-08-24T02:51:22.237Z,97550.16
2018-08-24T02:53:52.978Z,97560.13
2018-08-24T02:56:24.133Z,97554.48
2018-08-24T02:58:54.912Z,97556.82
2018-08-24T03:01:27.385Z,97551.53
2018-08-24T03:03:58.026Z,97559.82
2018-08-24T03:06:29.610Z,97561.09
2018-08-24T03:08:59.754Z,97571.69
2018-08-24T03:11:30.314Z,97571.24
2018-08-24T03:14:02.042Z,97573.84
2018-08-24T03:16:32.793Z,97573.36
2018-08-24T03:19:04.828Z,97576.39
2018-08-24T03:21:36.060Z,97574.37
2018-08-24T03:24:07.389Z,97584.86
2018-08-24T03:26:38.406Z,97585.29
2018-08-24T03:29:09.238Z,97590.94
2018-08-24T03:31:39.634Z,97584.03
2018-08-24T03:34:10.559Z,97593.84
2018-08-24T03:36:40.926Z,97601.14
2018-08-24T03:39:11.862Z,97601.57
2018-08-24T03:41:45.725Z,97604.06
2018-08-24T03:44:17.010Z,97604.87
2018-08-24T03:46:47.221Z,97601.25
2018-08-24T03:49:17.312Z,97601.14
2018-08-24T03:51:49.118Z,97609.52
2018-08-24T03:54:21.282Z,97607.45
2018-08-24T03:56:54.624Z,97609.33
2018-08-24T03:59:26.678Z,97611.01
2018-08-24T04:01:57.800Z,97615.87
2018-08-24T04:04:28.242Z,97613.89
2018-08-24T04:06:59.303Z,97607.64
2018-08-24T04:09:29.960Z,97608.48
2018-08-24T04:12:01.097Z,97608.52
2018-08-24T04:14:32.980Z,97616.61
2018-08-24T04:17:08.901Z,97614.13
2018-08-24T04:19:40.058Z,97615.92
2018-08-24T04:22:10.205Z,97618.64
2018-08-24T04:24:41.027Z,97621.64
2018-08-24T04:27:13.269Z,97627.95
2018-08-24T04:29:47.033Z,97624.28
2018-08-24T04:32:17.153Z,97620.23
2018-08-24T04:34:47.396Z,97619.95
2018-08-24T04:37:17.753Z,97623.53
2018-08-24T04:39:48.945Z,97627.19
2018-08-24T04:42:20.071Z,97625.58
2018-08-24T04:44:50.183Z,97637.28
2018-08-24T04:47:22.411Z,97630.67
2018-08-24T04:49:54.432Z,97632.83
2018-08-24T04:52:25.419Z,97642.73
2018-08-24T04:54:56.331Z,97640.73
2018-08-24T04:57:26.988Z,97637.25
2018-08-24T04:59:57.084Z,97629.87
2018-08-24T05:02:28.259Z,97633.09
2018-08-24T05:04:58.382Z,97633.63
2018-08-24T05:07:29.819Z,97635.77
2018-08-24T05:10:00.024Z,97642.45
2018-08-24T05:12:31.861Z,97642.17
2018-08-24T05:15:03.215Z,97642.11
2018-08-24T05:17:37.665Z,97634.80
2018-08-24T05:20:10.575Z,97638.52
2018-08-24T05:22:41.222Z,97641.34
2018-08-24T05:25:13.544Z,97638.66
2018-08-24T05:27:43.931Z,97632.22
2018-08-24T05:30:14.357Z,97636.14
2018-08-24T05:32:46.374Z,97630.37
2018-08-24T05:35:17.482Z,97636.13
2018-08-24T05:37:49.111Z,97631.89
2018-08-24T05:40:19.801Z,97627.73
2018-08-24T05:42:49.903Z,97635.63
2018-08-24T05:45:21.255Z,97639.50
2018-08-24T05:47:51.872Z,97636.05
2018-08-24T05:50:22.118Z,97645.16
2018-08-24T05:52:52.843Z,97646.59
2018-08-24T05:55:23.978Z,97640.34
2018-08-24T05:57:55.251Z,97637.27
2018-08-24T06:00:33.173Z,97641.70
2018-08-24T06:03:05.016Z,97644.27
2018-08-24T06:05:35.261Z,97642.30
2018-08-24T06:08:06.863Z,97645.13
2018-08-24T06:10:37.635Z,97650.91
2018-08-24T06:13:08.484Z,97657.31
2018-08-24T06:15:38.709Z,97648.31
2018-08-24T06:18:08.805Z,97648.72
2018-08-24T06:20:39.187Z,97654.52
2018-08-24T06:23:09.787Z,97662.45
2018-08-24T06:25:40.687Z,97659.99
2018-08-24T06:28:11.510Z,97660.58
2018-08-24T06:30:42.659Z,97655.04
2018-08-24T06:33:12.796Z,97656.26
2018-08-24T06:35:44.809Z,97662.75
2018-08-24T06:38:15.903Z,97668.77
2018-08-24T06:40:47.937Z,97661.72
2018-08-24T06:43:19.398Z,97663.48
2018-08-24T06:45:50.353Z,97662.08
2018-08-24T06:48:21.813Z,97659.07
2018-08-24T06:50:52.367Z,97662.56
2018-08-24T06:53:23.203Z,97663.05
2018-08-24T06:55:54.264Z,97664.42
2018-08-24T06:58:24.770Z,97665.38
2018-08-24T07:00:57.790Z,97669.37
2018-08-24T07:03:30.842Z,97677.31
2018-08-24T07:06:03.379Z,97677.77
2018-08-24T07:08:33.679Z,97679.27
2018-08-24T07:11:04.718Z,97681.22
2018-08-24T07:13:34.809Z,97674.47
2018-08-24T07:16:07.813Z,97667.78
2018-08-24T07:18:38.600Z,97668.05
2018-08-24T07:21:08.942Z,97673.73
2018-08-24T07:23:39.103Z,97672.61
2018-08-24T07:26:11.265Z,97673.48
2018-08-24T07:28:42.599Z,97672.83
2018-08-24T07:31:13.255Z,97664.31
2018-08-24T07:33:44.909Z,97664.16
2018-08-24T07:36:16.561Z,97663.38
2018-08-24T07:38:48.330Z,97658.05
2018-08-24T07:41:18.511Z,97665.00
2018-08-24T07:43:50.264Z,97668.70
2018-08-24T07:46:21.228Z,97664.35
2018-08-24T07:48:51.310Z,97667.84
2018-08-24T07:51:21.478Z,97660.78
2018-08-24T07:53:52.879Z,97666.57
2018-08-24T07:56:22.946Z,97663.31
2018-08-24T07:58:53.094Z,97670.05
2018-08-24T08:01:23.264Z,97665.73
2018-08-24T08:03:54.895Z,97671.02
2018-08-24T08:06:25.459Z,97676.19
2018-08-24T08:08:55.842Z,97677.05
2018-08-24T08:11:27.113Z,97675.59
2018-08-24T08:13:57.209Z,97681.89
2018-08-24T08:16:27.413Z,97675.17
2018-08-24T08:18:57.567Z,97677.20
2018-08-24T08:21:27.623Z,97685.55
2018-08-24T08:23:57.756Z,97686.21
2018-08-24T08:26:29.007Z,97670.48
2018-08-24T08:28:59.058Z,97675.37
2018-08-24T08:31:30.789Z,97684.36
2018-08-24T08:34:01.520Z,97684.03
2018-08-24T08:36:32.472Z,97678.88
2018-08-24T08:39:04.398Z,97678.21
2018-08-24T08:41:35.573Z,97675.70
2018-08-24T08:44:07.116Z,97676.36
2018-08-24T08:46:40.114Z,97667.82
2018-08-24T08:49:11.377Z,97672.41
2018-08-24T08:51:41.882Z,97666.02
2018-08-24T08:54:13.078Z,97670.63
2018-08-24T08:56:44.524Z,97659.91
2018-08-24T08:59:15.939Z,97663.52
2018-08-24T09:01:46.770Z,97674.39
2018-08-24T09:04:18.075Z,97668.22
2018-08-24T09:06:48.797Z,97676.23
2018-08-24T09:09:19.274Z,97668.97
2018-08-24T09:11:49.833Z,97677.34
2018-08-24T09:14:21.254Z,97666.83
2018-08-24T09:16:52.752Z,97664.34
2018-08-24T09:19:28.776Z,97671.21
2018-08-24T09:22:05.730Z,97681.42
2018-08-24T09:24:41.086Z,97671.17
2018-08-24T09:27:16.756Z,97671.20
2018-08-24T09:29:47.202Z,97676.53
2018-08-24T09:32:18.818Z,97680.39
2018-08-24T09:34:50.124Z,97678.53
2018-08-24T09:37:25.748Z,97673.55
2018-08-24T09:39:55.962Z,97669.53
2018-08-24T09:42:26.550Z,97660.59
2018-08-24T09:44:57.669Z,97645.20
2018-08-24T09:47:33.876Z,97652.07
2018-08-24T09:50:09.882Z,97653.54
2018-08-24T09:52:40.461Z,97652.30
2018-08-24T09:55:10.904Z,97657.67
2018-08-24T09:57:42.638Z,97648.80
2018-08-24T10:00:13.790Z,97648.20
2018-08-24T10:02:44.680Z,97651.02
2018-08-24T10:05:21.323Z,97650.91
2018-08-24T10:07:56.917Z,97643.92
2018-08-24T10:10:28.252Z,97635.17
2018-08-24T10:12:59.816Z,97636.25
2018-08-24T10:15:30.627Z,97636.28
2018-08-24T10:18:01.188Z,97629.61
2018-08-24T10:20:32.270Z,97626.80
2018-08-24T10:23:02.810Z,97619.76
2018-08-24T10:25:33.228Z,97628.11
2018-08-24T10:28:03.792Z,97628.83
2018-08-24T10:30:35.070Z,97631.90
2018-08-24T10:33:05.707Z,97643.17
2018-08-24T10:35:38.021Z,97635.27
2018-08-24T10:38:09.484Z,97631.73
2018-08-24T10:40:40.690Z,97637.64
2018-08-24T10:43:11.865Z,97631.58
2018-08-24T10:45:41.930Z,97644.55
2018-08-24T10:48:12.749Z,97638.80
2018-08-24T10:50:43.403Z,97633.84
2018-08-24T10:53:14.065Z,97638.85
2018-08-24T10:55:44.507Z,97650.58
2018-08-24T10:58:14.632Z,97656.95
2018-08-24T11:00:44.877Z,97646.68
2018-08-24T11:03:17.494Z,97648.23
2018-08-24T11:05:47.737Z,97640.12
2018-08-24T11:08:18.819Z,97622.93
2018-08-24T11:10:49.265Z,97640.77
2018-08-24T11:13:19.400Z,97626.34
2018-08-24T11:15:52.255Z,97624.06
2018-08-24T11:18:22.475Z,97611.14
2018-08-24T11:20:53.585Z,97602.95
2018-08-24T11:23:24.990Z,97614.81
2018-08-24T11:25:55.885Z,97617.28
2018-08-24T11:28:26.028Z,97604.70
2018-08-24T11:30:56.575Z,97591.47
2018-08-24T11:33:28.343Z,97601.95
2018-08-24T11:35:59.673Z,97594.14
2018-08-24T11:38:31.027Z,97592.89
2018-08-24T11:41:01.791Z,97589.45
2018-08-24T11:43:33.693Z,97580.08
2018-08-24T11:46:05.822Z,97581.40
2018-08-24T11:48:36.085Z,97589.33
2018-08-24T11:51:07.901Z,97590.83
2018-08-24T11:53:40.860Z,97602.15
2018-08-24T11:56:11.365Z,97587.39
2018-08-24T11:58:42.753Z,97581.23
2018-08-24T12:01:14.005Z,97578.45
2018-08-24T12:03:45.476Z,97586.93
2018-08-24T12:06:16.136Z,97582.08
2018-08-24T12:08:46.777Z,97581.81
2018-08-24T12:11:20.924Z,97586.77
2018-08-24T12:13:52.836Z,97590.50
2018-08-24T12:16:23.229Z,97597.34
2018-08-24T12:18:55.497Z,97594.05
2018-08-24T12:21:26.262Z,97593.80
2018-08-24T12:23:57.126Z,97605.09
2018-08-24T12:26:29.755Z,97591.78
2018-08-24T12:29:02.026Z,97610.13
2018-08-24T12:31:34.701Z,97606.53
2018-08-24T12:34:05.773Z,97610.23
2018-08-24T12:36:38.211Z,97606.80
2018-08-24T12:39:10.492Z,97617.09
2018-08-24T12:41:40.677Z,97639.52
2018-08-24T12:44:12.617Z,97631.53
2018-08-24T12:46:43.843Z,97626.77
2018-08-24T12:49:15.431Z,97628.80
2018-08-24T12:51:45.638Z,97620.89
2018-08-24T12:54:16.263Z,97614.22
2018-08-24T12:56:48.661Z,97622.45
2018-08-24T12:59:20.150Z,97635.98
2018-08-24T13:01:50.494Z,97651.83
2018-08-24T13:04:20.977Z,97644.48
2018-08-24T13:06:51.916Z,97655.77
2018-08-24T13:09:23.791Z,97659.47
2018-08-24T13:11:54.352Z,97647.89
2018-08-24T13:14:26.054Z,97644.17
2018-08-24T13:16:57.927Z,97644.05
2018-08-24T13:19:29.281Z,97642.91
2018-08-24T13:22:00.486Z,97634.17
2018-08-24T13:24:31.402Z,97636.56
2018-08-24T13:27:02.577Z,97629.39
2018-08-24T13:29:33.102Z,97632.91
2018-08-24T13:32:03.867Z,97633.88
2018-08-24T13:34:34.487Z,97633.73
2018-08-24T13:37:05.222Z,97632.91
2018-08-24T13:39:35.652Z,97646.13
2018-08-24T13:42:06.167Z,97635.70
2018-08-24T13:44:36.737Z,97645.48
2018-08-24T13:47:07.104Z,97634.64
2018-08-24T13:49:37.888Z,97638.55
2018-08-24T13:52:08.574Z,97643.65
2018-08-24T13:54:38.829Z,97651.91
2018-08-24T13:57:09.924Z,97659.02
2018-08-24T13:59:40.640Z,97665.11
2018-08-24T14:02:11.162Z,97669.36
2018-08-24T14:04:42.885Z,97683.84
2018-08-24T14:07:13.288Z,97687.44
2018-08-24T14:09:43.916Z,97695.84
2018-08-24T14:12:14.044Z,97688.94
2018-08-24T14:14:45.045Z,97698.56
2018-08-24T14:17:15.140Z,97700.59
2018-08-24T14:19:45.236Z,97693.16
2018-08-24T14:22:16.324Z,97704.45
2018-08-24T14:24:46.977Z,97708.71
2018-08-24T14:27:17.518Z,97711.95
2018-08-24T14:29:47.611Z,97711.24
2018-08-24T14:32:18.123Z,97714.16
2018-08-24T14:34:49.989Z,97713.03
2018-08-24T14:37:20.070Z,97706.99
2018-08-24T14:39:50.559Z,97709.25
2018-08-24T14:42:21.110Z,97723.08
2018-08-24T14:44:51.949Z,97723.64
2018-08-24T14:47:22.201Z,97727.70
2018-08-24T14:49:53.015Z,97729.89
2018-08-24T14:52:24.704Z,97722.87
2018-08-24T14:54:55.183Z,97716.23
2018-08-24T14:57:26.402Z,97713.52
2018-08-24T14:59:57.447Z,97706.37
2018-08-24T15:02:29.117Z,97710.92
2018-08-24T15:04:59.559Z,97710.45
2018-08-24T15:07:29.723Z,97719.25
2018-08-24T15:10:00.755Z,97717.45
2018-08-24T15:12:30.802Z,97721.32
2018-08-24T15:15:01.789Z,97721.32
2018-08-24T15:17:33.132Z,97718.17
2018-08-24T15:20:04.558Z,97713.23
2018-08-24T15:22:35.036Z,97713.59
2018-08-24T15:25:07.019Z,97709.80
2018-08-24T15:27:38.615Z,97698.05
2018-08-24T15:30:12.637Z,97703.43
2018-08-24T15:32:44.308Z,97714.76
2018-08-24T15:35:14.951Z,97721.72
2018-08-24T15:37:46.774Z,97707.28
2018-08-24T15:40:17.508Z,97702.19
2018-08-24T15:42:48.615Z,97704.33
2018-08-24T15:45:21.413Z,97694.84
2018-08-24T15:47:51.801Z,97694.73
2018-08-24T15:50:24.407Z,97687.08
2018-08-24T15:52:55.884Z,97693.06
2018-08-24T15:55:27.095Z,97685.73
2018-08-24T15:57:57.899Z,97692.39
2018-08-24T16:00:28.044Z,97688.91
2018-08-24T16:02:58.518Z,97699.05
2018-08-24T16:05:29.984Z,97684.63
2018-08-24T16:08:01.079Z,97684.16
2018-08-24T16:10:34.374Z,97691.19
2018-08-24T16:13:05.382Z,97690.49
2018-08-24T16:15:35.974Z,97697.80
2018-08-24T16:18:11.545Z,97694.86
2018-08-24T16:20:42.059Z,97701.98
2018-08-24T16:23:12.936Z,97704.27
2018-08-24T16:25:44.138Z,97690.58
2018-08-24T16:28:16.825Z,97701.38
2018-08-24T16:30:47.105Z,97703.44
2018-08-24T16:33:19.018Z,97696.75
2018-08-24T16:35:49.438Z,97691.52
2018-08-24T16:38:19.966Z,97687.75
2018-08-24T16:40:51.433Z,97688.97
2018-08-24T16:43:22.777Z,97692.64
2018-08-24T16:45:54.939Z,97692.66
2018-08-24T16:48:27.560Z,97688.67
2018-08-24T16:50:59.082Z,97688.88
2018-08-24T16:53:29.409Z,97701.17
2018-08-24T16:56:00.538Z,97700.23
2018-08-24T16:58:31.288Z,97697.22
2018-08-24T17:01:03.384Z,97704.97
2018-08-24T17:03:34.205Z,97718.55
2018-08-24T17:06:05.614Z,97725.36
2018-08-24T17:08:35.901Z,97730.20
2018-08-24T17:11:06.783Z,97727.91
2018-08-24T17:13:38.161Z,97724.56
2018-08-24T17:16:08.938Z,97721.67
2018-08-24T17:18:40.471Z,97728.54
2018-08-24T17:21:12.067Z,97728.29
2018-08-24T17:23:43.020Z,97730.68
2018-08-24T17:26:13.624Z,97728.73
2018-08-24T17:28:43.942Z,97731.28
2018-08-24T17:31:14.646Z,97725.80
2018-08-24T17:33:45.630Z,97721.73
2018-08-24T17:36:16.823Z,97734.64
2018-08-24T17:38:47.851Z,97733.47
2018-08-24T17:41:18.129Z,97736.11
2018-08-24T17:43:48.898Z,97733.62
2018-08-24T17:46:19.661Z,97730.16
2018-08-24T17:48:50.103Z,97737.41
2018-08-24T17:51:20.380Z,97739.86
2018-08-24T17:53:50.881Z,97740.34
2018-08-24T17:56:22.831Z,97739.30
2018-08-24T17:58:52.972Z,97744.75
2018-08-24T18:01:24.872Z,97750.51
2018-08-24T18:03:55.580Z,97755.34
2018-08-24T18:06:25.947Z,97743.78
2018-08-24T18:08:56.031Z,97741.34
2018-08-24T18:11:26.573Z,97739.86
2018-08-24T18:13:56.683Z,97741.46
2018-08-24T18:16:28.408Z,97743.45
2018-08-24T18:19:01.381Z,97745.73
2018-08-24T18:21:32.056Z,97746.42
2018-08-24T18:24:04.175Z,97741.27
2018-08-24T18:26:36.329Z,97736.13
2018-08-24T18:29:06.945Z,97738.46
2018-08-24T18:31:38.130Z,97741.70
2018-08-24T18:34:08.965Z,97735.58
2018-08-24T18:36:41.900Z,97736.61
2018-08-24T18:39:13.211Z,97734.93
2018-08-24T18:41:45.102Z,97729.25
2018-08-24T18:44:15.447Z,97729.85
2018-08-24T18:46:46.039Z,97728.57
2018-08-24T18:49:16.763Z,97736.14
2018-08-24T18:51:47.455Z,97756.48
2018-08-24T18:54:18.918Z,97761.31
2018-08-24T18:56:49.559Z,97763.66
2018-08-24T18:59:20.124Z,97770.98
2018-08-24T19:01:51.479Z,97777.02
2018-08-24T19:04:22.933Z,97782.87
2018-08-24T19:06:54.560Z,97785.66
2018-08-24T19:09:25.933Z,97780.34
2018-08-24T19:12:02.471Z,97781.91
2018-08-24T19:14:32.788Z,97785.03
2018-08-24T19:17:05.116Z,97781.09
2018-08-24T19:20:44.072Z,97779.44
2018-08-24T19:23:15.193Z,97776.57
2018-08-24T19:25:45.823Z,97779.94
2018-08-24T19:32:59.769Z,97784.85
2018-08-24T19:35:30.236Z,97789.55
2018-08-24T19:38:01.450Z,97781.41
2018-08-24T19:41:38.695Z,97794.46
2018-08-24T19:44:10.935Z,97795.66
2018-08-24T19:46:41.423Z,97790.41
2018-08-24T19:49:15.141Z,97793.63
2018-08-24T19:51:46.198Z,97801.33
2018-08-24T19:54:17.268Z,97795.91
2018-08-24T19:56:48.898Z,97793.51
2018-08-24T19:59:21.124Z,97789.68
2018-08-24T20:01:51.905Z,97786.33
2018-08-24T20:04:22.739Z,97789.56
2018-08-24T20:06:59.016Z,97786.80
2018-08-24T20:09:34.670Z,97774.70
2018-08-24T20:12:05.673Z,97775.30
2018-08-24T20:14:41.033Z,97776.02
2018-08-24T20:17:17.325Z,97778.16
2018-08-24T20:19:47.387Z,97782.38
2018-08-24T20:22:17.909Z,97793.39
2018-08-24T20:24:49.166Z,97795.69
2018-08-24T20:27:19.764Z,97794.59
2018-08-24T20:29:51.187Z,97797.83
2018-08-24T20:32:21.394Z,97809.59
2018-08-24T20:34:52.658Z,97810.77
2018-08-24T20:37:23.848Z,97821.31
2018-08-24T20:39:53.985Z,97816.66
2018-08-24T20:42:25.261Z,97818.67
2018-08-24T20:44:55.334Z,97809.81
2018-08-24T20:47:26.763Z,97801.68
2018-08-24T20:49:57.018Z,97808.13
2018-08-24T20:52:28.023Z,97816.66
2018-08-24T20:54:59.760Z,97816.28
2018-08-24T20:57:32.245Z,97820.14
2018-08-24T21:00:04.195Z,97820.02
2018-08-24T21:02:35.066Z,97821.20
2018-08-24T21:05:06.055Z,97819.28
2018-08-24T21:07:36.801Z,97813.91
2018-08-24T21:10:07.484Z,97825.05
2018-08-24T21:12:38.711Z,97825.64
2018-08-24T21:15:09.781Z,97829.48
2018-08-24T21:17:40.533Z,97827.20
2018-08-24T21:20:10.820Z,97825.52
2018-08-24T21:22:42.133Z,97831.86
2018-08-24T21:25:14.200Z,97830.44
2018-08-24T21:27:45.033Z,97825.75
2018-08-24T21:30:15.592Z,97834.14
2018-08-24T21:32:46.586Z,97825.86
2018-08-24T21:35:17.854Z,97840.95
2018-08-24T21:37:49.060Z,97837.03
2018-08-24T21:40:22.220Z,97835.31
2018-08-24T21:42:52.429Z,97827.07
2018-08-24T21:45:22.656Z,97827.88
2018-08-24T21:47:52.903Z,97826.34
2018-08-24T21:50:23.644Z,97825.86
2018-08-24T21:52:55.175Z,97819.50
2018-08-24T21:55:25.401Z,97818.66
2018-08-24T21:57:57.103Z,97820.22
2018-08-24T22:00:27.573Z,97819.02
2018-08-24T22:02:58.110Z,97816.75
2018-08-24T22:05:29.901Z,97812.17
2018-08-24T22:08:00.122Z,97809.90
2018-08-24T22:10:30.702Z,97821.50
2018-08-24T22:13:01.052Z,97813.23
2018-08-24T22:15:31.975Z,97805.55
2018-08-24T22:18:02.992Z,97803.31
2018-08-24T22:20:33.182Z,97808.47
2018-08-24T22:23:03.669Z,97810.23
2018-08-24T22:25:34.382Z,97808.22
2018-08-24T22:28:04.761Z,97815.65
2018-08-24T22:30:35.001Z,97810.74
2018-08-24T22:33:06.234Z,97813.85
2018-08-24T22:35:37.047Z,97804.84
2018-08-24T22:38:07.757Z,97801.62
2018-08-24T22:40:38.758Z,97797.67
2018-08-24T22:43:13.988Z,97794.63
2018-08-24T22:45:45.043Z,97793.31
2018-08-24T22:48:16.274Z,97794.23
2018-08-24T22:50:46.915Z,97786.95
2018-08-24T22:53:17.004Z,97791.23
2018-08-24T22:55:47.195Z,97792.29
2018-08-24T22:58:17.325Z,97792.28
2018-08-24T23:00:48.465Z,97792.39
2018-08-24T23:03:19.047Z,97795.23
2018-08-24T23:05:49.431Z,97789.74
2018-08-24T23:08:20.748Z,97789.59
2018-08-24T23:10:51.998Z,97793.06
2018-08-24T23:13:23.296Z,97800.84
2018-08-24T23:15:55.216Z,97786.00
2018-08-24T23:18:26.304Z,97783.00
2018-08-24T23:20:56.820Z,97779.26
2018-08-24T23:23:28.101Z,97780.45
2018-08-24T23:25:59.893Z,97781.14
2018-08-24T23:28:31.171Z,97776.61
2018-08-24T23:31:03.326Z,97772.88
2018-08-24T23:33:34.176Z,97765.32
2018-08-24T23:36:05.990Z,97764.12
2018-08-24T23:38:36.941Z,97758.17
2018-08-24T23:41:08.024Z,97762.22
2018-08-24T23:43:38.701Z,97765.53
2018-08-24T23:46:10.670Z,97764.11
2018-08-24T23:48:45.128Z,97768.29
2018-08-24T23:51:16.220Z,97767.60
2018-08-24T23:53:47.004Z,97764.95
2018-08-24T23:56:17.668Z,97761.57
2018-08-24T23:58:47.822Z,97762.75
